Time;durP1;ratioP1;P1;durP2;ratioP2;P2;SDS_P1;SDS_P2;PMS_P1;PMS_P2;Temp;Humidity;BMP_temperature;BMP_pressure;BME280_temperature;BME280_humidity;BME280_pressure;Samples;Min_cycle;Max_cycle;Signal;HPM_P1;HPM_P2
2023/05/20 00:00:40;;;;;;;108.90;3.50;;;16.10;40.90;;;;;;5083150;28;20186;-82
2023/05/20 00:03:05;;;;;;;103.37;3.00;;;16.20;42.30;;;;;;5076077;28;20410;-77
2023/05/20 00:05:31;;;;;;;104.40;2.80;;;16.50;41.30;;;;;;5072787;28;20639;-79
2023/05/20 00:07:57;;;;;;;105.27;3.17;;;16.70;41.20;;;;;;5072320;28;20183;-77
2023/05/20 00:10:22;;;;;;;105.27;2.97;;;16.80;41.90;;;;;;5072081;28;20307;-78
2023/05/20 00:12:48;;;;;;;105.87;3.07;;;16.90;42.30;;;;;;5070226;28;20217;-77
2023/05/20 00:15:13;;;;;;;107.83;3.20;;;16.90;41.10;;;;;;5071876;28;20534;-79
2023/05/20 00:17:39;;;;;;;107.97;3.10;;;16.90;41.50;;;;;;5071602;28;20222;-77
2023/05/20 00:20:05;;;;;;;108.30;3.50;;;17.00;41.30;;;;;;5071579;28;20208;-77
2023/05/20 00:22:31;;;;;;;107.37;2.73;;;17.00;41.70;;;;;;5071865;28;20593;-77
2023/05/20 00:24:57;;;;;;;107.67;3.00;;;17.10;41.40;;;;;;5071609;28;20409;-79
2023/05/20 00:27:22;;;;;;;108.67;3.40;;;17.00;41.30;;;;;;5071739;28;20185;-77
2023/05/20 00:29:48;;;;;;;107.97;3.27;;;16.90;42.50;;;;;;5071747;28;20199;-79
2023/05/20 00:32:13;;;;;;;107.77;2.80;;;17.00;41.50;;;;;;5071172;28;20178;-77
2023/05/20 00:34:39;;;;;;;108.27;3.10;;;17.00;41.40;;;;;;5071181;28;20179;-77
2023/05/20 00:37:05;;;;;;;108.40;3.20;;;16.90;42.10;;;;;;5071425;28;20546;-78
2023/05/20 00:39:30;;;;;;;108.10;3.10;;;16.90;41.30;;;;;;5071253;28;20191;-78
2023/05/20 00:41:59;;;;;;;108.87;3.20;;;17.00;41.50;;;;;;5071425;28;20164;-77
2023/05/20 00:44:25;;;;;;;108.17;3.20;;;17.10;41.60;;;;;;5070934;28;20645;-78
2023/05/20 00:46:52;;;;;;;108.30;2.90;;;17.00;41.60;;;;;;5071728;28;20819;-77
2023/05/20 00:49:18;;;;;;;107.97;2.70;;;17.10;42.40;;;;;;5071562;28;20439;-77
2023/05/20 00:51:44;;;;;;;108.00;2.90;;;17.00;41.60;;;;;;5070342;28;20939;-77
2023/05/20 00:54:10;;;;;;;108.27;3.13;;;16.90;41.40;;;;;;5071248;28;20436;-77
2023/05/20 00:56:36;;;;;;;108.17;3.40;;;16.90;41.80;;;;;;5071166;28;20907;-77
2023/05/20 00:59:02;;;;;;;108.63;3.17;;;17.00;41.40;;;;;;5071062;28;20309;-78
2023/05/20 01:01:27;;;;;;;108.33;3.40;;;17.00;41.00;;;;;;5072763;28;20456;-78
2023/05/20 01:03:53;;;;;;;109.40;3.00;;;16.90;41.80;;;;;;5071078;28;20169;-79
2023/05/20 01:06:18;;;;;;;109.67;3.40;;;16.90;42.50;;;;;;5077104;28;20177;-78
2023/05/20 01:08:44;;;;;;;109.47;3.53;;;16.90;42.30;;;;;;5077548;28;20185;-78
2023/05/20 01:11:41;;;;;;;109.03;2.80;;;16.90;42.10;;;;;;5077568;28;20170;-78
2023/05/20 01:14:07;;;;;;;111.23;3.37;;;17.00;41.90;;;;;;5120860;22;20885;-70
2023/05/20 01:16:34;;;;;;;110.77;2.90;;;17.00;41.70;;;;;;5033972;28;20771;-71
2023/05/20 01:19:03;;;;;;;108.37;2.90;;;17.00;42.00;;;;;;5033953;28;20410;-70
2023/05/20 01:21:34;;;;;;;109.10;2.93;;;17.00;41.80;;;;;;5035125;28;20416;-70
2023/05/20 01:24:00;;;;;;;108.60;3.07;;;16.90;42.10;;;;;;5034277;28;20446;-71
2023/05/20 01:26:26;;;;;;;108.57;2.90;;;16.80;42.70;;;;;;5034378;28;20407;-70
2023/05/20 01:28:52;;;;;;;108.50;2.80;;;16.90;42.30;;;;;;5034558;28;20423;-71
2023/05/20 01:31:25;;;;;;;109.17;3.37;;;16.80;43.70;;;;;;5034881;28;20225;-72
2023/05/20 01:33:55;;;;;;;110.20;3.60;;;17.00;42.00;;;;;;5033891;28;20201;-70
2023/05/20 01:36:21;;;;;;;104.57;2.50;;;17.00;41.80;;;;;;5034705;28;20394;-70
2023/05/20 01:38:48;;;;;;;104.37;2.70;;;16.90;42.30;;;;;;5034978;28;20422;-70
2023/05/20 01:41:14;;;;;;;106.03;4.00;;;16.90;42.10;;;;;;5034928;28;20968;-70
2023/05/20 01:43:40;;;;;;;104.40;2.80;;;16.80;41.50;;;;;;5034190;28;20464;-70
2023/05/20 01:46:06;;;;;;;104.03;2.60;;;16.70;43.00;;;;;;5034208;28;20411;-70
2023/05/20 01:48:32;;;;;;;103.60;2.63;;;16.80;42.60;;;;;;5034664;28;20403;-70
2023/05/20 01:50:57;;;;;;;103.30;2.70;;;16.80;43.00;;;;;;5034611;28;20677;-70
2023/05/20 01:53:23;;;;;;;104.60;3.20;;;16.70;43.30;;;;;;5034033;28;20200;-70
2023/05/20 01:55:49;;;;;;;103.47;2.33;;;16.60;43.30;;;;;;5034812;28;20196;-70
2023/05/20 01:58:14;;;;;;;103.87;2.70;;;16.60;43.40;;;;;;5034511;28;20235;-71
2023/05/20 02:00:40;;;;;;;103.90;2.80;;;16.60;43.70;;;;;;5034572;28;20263;-71
2023/05/20 02:03:06;;;;;;;104.80;3.30;;;16.60;43.20;;;;;;5033779;28;20379;-70
2023/05/20 02:05:31;;;;;;;103.73;2.70;;;16.70;43.90;;;;;;5034355;28;20945;-68
2023/05/20 02:07:57;;;;;;;103.43;2.70;;;16.80;43.00;;;;;;5034162;28;20574;-68
2023/05/20 02:10:22;;;;;;;104.50;3.03;;;16.80;42.70;;;;;;5034284;28;20255;-68
2023/05/20 02:12:48;;;;;;;104.50;3.03;;;16.80;42.40;;;;;;5033706;28;20189;-68
2023/05/20 02:15:14;;;;;;;111.13;2.97;;;17.00;40.90;;;;;;5034011;28;20217;-68
2023/05/20 02:17:42;;;;;;;108.90;2.77;;;16.90;42.20;;;;;;5032925;28;20191;-70
2023/05/20 02:20:09;;;;;;;110.03;2.60;;;16.80;43.10;;;;;;5033773;28;20539;-68
2023/05/20 02:22:34;;;;;;;110.27;2.90;;;16.80;43.40;;;;;;5033532;28;20496;-70
2023/05/20 02:25:00;;;;;;;110.30;2.90;;;16.70;43.60;;;;;;5033979;28;20521;-68
2023/05/20 02:27:26;;;;;;;110.87;3.17;;;16.70;43.60;;;;;;5033919;28;20780;-68
2023/05/20 02:29:51;;;;;;;110.63;3.10;;;16.70;43.80;;;;;;5033898;28;20203;-68
2023/05/20 02:32:19;;;;;;;110.90;3.37;;;16.60;43.40;;;;;;5033693;28;20176;-68
2023/05/20 02:34:45;;;;;;;110.77;3.37;;;16.60;43.50;;;;;;5032999;28;20277;-70
2023/05/20 02:37:10;;;;;;;111.00;2.70;;;16.40;43.40;;;;;;5033682;28;20533;-68
2023/05/20 02:39:36;;;;;;;102.77;2.67;;;16.40;43.70;;;;;;5033939;28;20175;-68
2023/05/20 02:42:03;;;;;;;103.90;3.37;;;16.50;43.80;;;;;;5033740;28;20177;-68
2023/05/20 02:44:29;;;;;;;102.83;2.67;;;16.30;44.10;;;;;;5033084;28;20186;-68
2023/05/20 02:46:54;;;;;;;103.70;2.97;;;16.20;44.60;;;;;;5033430;28;20435;-70
2023/05/20 02:49:20;;;;;;;102.70;2.60;;;16.30;44.40;;;;;;5033437;28;20847;-68
2023/05/20 02:51:46;;;;;;;103.23;2.80;;;16.40;44.10;;;;;;5033475;28;20202;-68
2023/05/20 02:54:11;;;;;;;103.10;2.70;;;16.30;43.90;;;;;;5032785;28;20192;-69
2023/05/20 02:56:37;;;;;;;102.90;2.57;;;16.30;43.30;;;;;;5033398;28;20175;-68
2023/05/20 02:59:03;;;;;;;103.87;3.00;;;16.30;43.30;;;;;;5033194;28;20305;-68
2023/05/20 03:01:29;;;;;;;103.07;2.77;;;16.10;44.30;;;;;;5033137;28;20171;-68
2023/05/20 03:03:54;;;;;;;107.70;3.43;;;16.10;43.90;;;;;;5032726;28;20432;-70
2023/05/20 03:06:20;;;;;;;106.20;3.50;;;16.10;43.90;;;;;;5033268;28;20175;-69
2023/05/20 03:08:46;;;;;;;105.70;3.13;;;16.10;44.60;;;;;;5033339;28;20183;-71
2023/05/20 03:11:11;;;;;;;107.17;3.67;;;16.20;44.00;;;;;;5033080;28;20261;-69
2023/05/20 03:13:37;;;;;;;105.30;2.67;;;16.10;44.50;;;;;;5032264;28;20187;-69
2023/05/20 03:16:03;;;;;;;106.00;3.00;;;16.20;44.70;;;;;;5032848;28;20166;-69
2023/05/20 03:18:28;;;;;;;105.43;2.80;;;16.20;44.50;;;;;;5033127;28;20227;-69
2023/05/20 03:20:54;;;;;;;105.57;2.63;;;16.10;44.90;;;;;;5032725;28;20177;-69
2023/05/20 03:23:20;;;;;;;106.00;3.07;;;16.20;45.10;;;;;;5032398;28;20232;-69
2023/05/20 03:25:46;;;;;;;105.80;2.90;;;16.20;44.50;;;;;;5032967;28;20192;-69
2023/05/20 03:28:12;;;;;;;106.50;3.33;;;16.30;43.90;;;;;;5047827;28;20427;-69
2023/05/20 03:30:37;;;;;;;105.67;3.03;;;16.30;45.60;;;;;;5032683;28;20413;-69
2023/05/20 03:33:04;;;;;;;106.23;3.33;;;16.30;44.70;;;;;;5031607;28;20186;-69
2023/05/20 03:35:30;;;;;;;105.77;3.10;;;16.30;44.60;;;;;;5032463;28;20190;-69
2023/05/20 03:37:55;;;;;;;106.60;3.27;;;16.30;44.00;;;;;;5032637;28;20481;-69
2023/05/20 03:40:21;;;;;;;106.50;2.90;;;16.30;45.20;;;;;;5032662;28;20167;-69
2023/05/20 03:42:47;;;;;;;106.27;2.93;;;16.30;44.30;;;;;;5031528;28;20254;-69
2023/05/20 03:45:12;;;;;;;106.30;2.83;;;16.40;44.70;;;;;;5032384;28;20191;-69
2023/05/20 03:47:38;;;;;;;105.60;2.27;;;16.40;44.70;;;;;;5032507;28;20356;-69
2023/05/20 03:50:04;;;;;;;106.27;2.60;;;16.40;44.40;;;;;;5032184;28;20175;-69
2023/05/20 03:52:30;;;;;;;106.47;2.80;;;16.40;44.60;;;;;;5031941;28;20200;-73
2023/05/20 03:54:56;;;;;;;108.00;3.43;;;16.50;45.40;;;;;;5031630;28;20464;-69
2023/05/20 03:57:21;;;;;;;107.17;2.93;;;16.40;45.80;;;;;;5032273;28;20194;-69
2023/05/20 03:59:47;;;;;;;108.30;2.90;;;16.40;44.70;;;;;;5032504;28;20261;-69
2023/05/20 04:02:13;;;;;;;108.90;3.30;;;16.50;44.30;;;;;;5032547;28;20206;-69
2023/05/20 04:04:41;;;;;;;109.67;3.10;;;16.50;44.40;;;;;;5031819;28;20194;-69
2023/05/20 04:07:07;;;;;;;108.00;2.83;;;16.50;43.80;;;;;;5032210;28;20667;-71
2023/05/20 04:09:33;;;;;;;108.47;3.20;;;16.50;44.00;;;;;;5032511;28;20416;-69
2023/05/20 04:11:59;;;;;;;106.10;2.80;;;16.50;42.50;;;;;;5032379;28;20414;-69
2023/05/20 04:14:24;;;;;;;106.27;2.93;;;16.60;42.90;;;;;;5031153;28;20597;-69
2023/05/20 04:16:50;;;;;;;106.70;3.17;;;16.60;43.30;;;;;;5032237;28;20725;-69
2023/05/20 04:19:18;;;;;;;105.87;2.70;;;16.50;43.00;;;;;;5032302;28;20720;-70
2023/05/20 04:21:44;;;;;;;106.07;2.70;;;16.30;42.90;;;;;;5032337;28;20176;-71
2023/05/20 04:24:10;;;;;;;108.90;3.77;;;16.10;43.80;;;;;;5031239;28;20455;-69
2023/05/20 04:26:36;;;;;;;106.17;3.00;;;16.40;44.60;;;;;;5032253;28;20449;-70
2023/05/20 04:29:03;;;;;;;110.93;3.90;;;16.60;44.30;;;;;;5032122;28;20640;-71
2023/05/20 04:31:29;;;;;;;109.37;2.93;;;16.50;43.30;;;;;;5032190;28;20571;-69
2023/05/20 04:33:56;;;;;;;109.77;3.27;;;16.60;42.70;;;;;;5031124;28;20427;-69
2023/05/20 04:36:27;;;;;;;109.97;3.30;;;16.60;42.50;;;;;;5031082;28;20426;-69
2023/05/20 04:38:53;;;;;;;109.30;2.90;;;16.80;42.40;;;;;;5031868;28;20411;-70
2023/05/20 04:41:19;;;;;;;108.90;3.03;;;16.80;42.70;;;;;;5031730;28;20430;-69
2023/05/20 04:43:45;;;;;;;108.90;2.70;;;16.90;41.80;;;;;;5031959;28;20896;-70
2023/05/20 04:46:10;;;;;;;104.00;3.00;;;16.90;42.20;;;;;;5032189;28;20196;-69
2023/05/20 04:48:36;;;;;;;105.87;3.27;;;17.00;42.90;;;;;;5030434;28;20352;-71
2023/05/20 04:51:02;;;;;;;107.60;3.17;;;17.00;41.90;;;;;;5032054;28;20667;-69
2023/05/20 04:53:29;;;;;;;104.87;2.90;;;17.10;42.00;;;;;;5031708;28;20416;-69
2023/05/20 04:55:55;;;;;;;104.27;2.40;;;17.00;42.70;;;;;;5047108;28;20283;-69
2023/05/20 04:58:23;;;;;;;104.80;2.93;;;16.90;40.70;;;;;;5031748;28;20509;-70
2023/05/20 05:00:50;;;;;;;104.17;2.70;;;16.90;42.00;;;;;;5031918;28;20446;-71
2023/05/20 05:03:16;;;;;;;104.60;3.03;;;16.90;42.20;;;;;;5031009;28;20414;-69
2023/05/20 05:05:42;;;;;;;104.53;3.13;;;16.80;42.00;;;;;;5031860;28;20439;-69
2023/05/20 05:08:10;;;;;;;104.30;2.60;;;17.10;41.00;;;;;;5031829;28;20454;-69
2023/05/20 05:10:36;;;;;;;105.70;3.63;;;17.20;40.50;;;;;;5031791;28;20417;-70
2023/05/20 05:13:02;;;;;;;104.60;2.60;;;17.20;40.20;;;;;;5030795;28;20403;-70
2023/05/20 05:15:28;;;;;;;105.90;3.00;;;17.20;40.00;;;;;;5031559;28;20214;-70
2023/05/20 05:17:54;;;;;;;105.30;2.67;;;17.00;40.10;;;;;;5031964;28;20934;-70
2023/05/20 05:20:20;;;;;;;105.57;2.87;;;17.00;40.80;;;;;;5031438;28;20414;-69
2023/05/20 05:22:46;;;;;;;106.60;3.20;;;17.00;40.80;;;;;;5030948;28;20427;-69
2023/05/20 05:25:12;;;;;;;106.57;3.23;;;17.00;40.80;;;;;;5031427;28;20281;-70
2023/05/20 05:27:38;;;;;;;112.90;3.13;;;17.00;41.50;;;;;;5031598;28;20632;-70
2023/05/20 05:30:08;;;;;;;114.57;3.53;;;17.10;40.40;;;;;;5030301;28;20276;-70
2023/05/20 05:32:36;;;;;;;114.83;3.50;;;17.10;40.20;;;;;;5030968;28;20395;-72
2023/05/20 05:35:02;;;;;;;114.50;3.27;;;16.90;40.00;;;;;;5031176;28;20922;-70
2023/05/20 05:37:28;;;;;;;114.73;3.17;;;17.00;41.20;;;;;;5031559;28;20469;-70
2023/05/20 05:39:53;;;;;;;114.47;3.10;;;17.00;40.40;;;;;;5031398;28;20177;-69
2023/05/20 05:42:19;;;;;;;115.37;3.73;;;17.00;40.70;;;;;;5031490;28;20181;-70
2023/05/20 05:44:44;;;;;;;115.53;3.90;;;16.90;40.80;;;;;;5030840;28;20251;-69
2023/05/20 05:47:10;;;;;;;111.60;3.17;;;17.20;41.50;;;;;;5031340;28;20641;-70
2023/05/20 05:49:36;;;;;;;111.50;3.23;;;17.30;40.60;;;;;;5031386;28;20256;-69
2023/05/20 05:52:02;;;;;;;112.27;3.40;;;17.20;40.60;;;;;;5034233;28;20454;-71
2023/05/20 05:54:27;;;;;;;111.87;2.90;;;17.20;40.20;;;;;;5034331;28;20246;-70
2023/05/20 05:56:55;;;;;;;115.20;3.63;;;17.20;40.30;;;;;;5034943;28;20201;-69
2023/05/20 05:59:21;;;;;;;115.80;3.40;;;17.10;40.20;;;;;;5034910;28;20171;-71
2023/05/20 06:01:47;;;;;;;112.97;3.13;;;17.40;40.60;;;;;;5035079;28;20405;-71
2023/05/20 06:04:12;;;;;;;111.63;3.10;;;17.70;39.50;;;;;;5034265;28;20437;-71
2023/05/20 06:06:39;;;;;;;111.83;3.30;;;17.70;38.00;;;;;;5034846;28;20582;-70
2023/05/20 06:09:04;;;;;;;106.80;2.97;;;17.50;39.30;;;;;;5034579;28;20251;-70
2023/05/20 06:11:30;;;;;;;112.20;3.20;;;17.50;39.30;;;;;;5034627;28;20520;-70
2023/05/20 06:13:55;;;;;;;108.37;3.17;;;17.20;39.00;;;;;;5034079;28;20600;-70
2023/05/20 06:16:21;;;;;;;107.73;3.07;;;17.40;40.60;;;;;;5034544;28;20307;-70
2023/05/20 06:18:49;;;;;;;107.87;2.87;;;17.60;40.00;;;;;;5034612;28;20197;-70
2023/05/20 06:21:15;;;;;;;107.87;3.07;;;17.80;40.40;;;;;;5034627;28;20227;-71
2023/05/20 06:23:40;;;;;;;107.43;2.87;;;18.00;38.80;;;;;;5033597;28;20412;-72
2023/05/20 06:26:06;;;;;;;107.60;3.20;;;18.40;38.10;;;;;;5034323;28;20418;-70
2023/05/20 06:28:31;;;;;;;108.10;3.03;;;18.40;37.90;;;;;;5034374;28;20570;-71
2023/05/20 06:30:57;;;;;;;107.67;3.23;;;18.60;37.00;;;;;;5034448;28;20176;-70
2023/05/20 06:33:26;;;;;;;109.73;3.87;;;18.50;37.60;;;;;;5033732;28;20222;-72
2023/05/20 06:35:53;;;;;;;110.20;3.97;;;18.40;37.70;;;;;;5032757;28;20680;-70
2023/05/20 06:38:19;;;;;;;108.10;3.20;;;18.70;38.00;;;;;;5033961;28;20451;-70
2023/05/20 06:40:45;;;;;;;109.30;3.30;;;18.80;37.50;;;;;;5034172;28;20425;-68
2023/05/20 06:43:11;;;;;;;107.77;2.97;;;18.80;37.60;;;;;;5033628;28;20620;-70
2023/05/20 06:45:36;;;;;;;108.00;3.23;;;18.80;36.90;;;;;;5034031;28;20431;-70
2023/05/20 06:48:02;;;;;;;107.40;2.63;;;18.60;37.30;;;;;;5033829;28;20711;-70
2023/05/20 06:50:28;;;;;;;107.87;3.10;;;18.80;37.50;;;;;;5033920;28;20179;-70
2023/05/20 06:52:53;;;;;;;108.00;3.40;;;18.90;36.20;;;;;;5033433;28;20181;-71
2023/05/20 06:55:19;;;;;;;109.87;3.87;;;18.90;36.70;;;;;;5033788;28;20208;-71
2023/05/20 06:57:45;;;;;;;108.33;3.40;;;19.20;37.50;;;;;;5033821;28;20965;-70
2023/05/20 07:00:12;;;;;;;107.70;3.00;;;19.10;36.90;;;;;;5033593;28;20308;-70
2023/05/20 07:02:38;;;;;;;108.50;3.43;;;18.90;36.50;;;;;;5032623;28;20180;-71
2023/05/20 07:05:04;;;;;;;108.10;2.83;;;18.90;37.80;;;;;;5032679;28;20441;-73
2023/05/20 07:07:29;;;;;;;109.07;3.30;;;18.90;37.90;;;;;;5033719;28;20182;-69
2023/05/20 07:09:56;;;;;;;111.13;3.83;;;19.00;38.30;;;;;;5033273;28;20417;-69
2023/05/20 07:12:21;;;;;;;108.50;3.00;;;19.00;38.40;;;;;;5033687;28;20175;-69
2023/05/20 07:14:47;;;;;;;112.97;4.20;;;19.20;38.30;;;;;;5057032;22;20488;-72
2023/05/20 07:17:13;;;;;;;108.67;3.37;;;19.50;37.50;;;;;;5036771;28;20201;-71
2023/05/20 07:19:38;;;;;;;110.40;3.60;;;19.50;36.40;;;;;;5035309;28;20175;-71
2023/05/20 07:22:04;;;;;;;109.27;4.00;;;19.40;36.70;;;;;;5035524;28;20645;-72
2023/05/20 07:24:30;;;;;;;111.90;3.50;;;18.60;37.90;;;;;;5016032;28;20249;-74
2023/05/20 07:26:55;;;;;;;113.70;3.63;;;18.90;38.70;;;;;;5035210;28;20207;-73
2023/05/20 07:29:21;;;;;;;112.50;3.47;;;19.50;37.20;;;;;;5034789;28;20179;-74
2023/05/20 07:31:46;;;;;;;113.47;5.70;;;19.90;36.00;;;;;;5034823;28;20180;-75
2023/05/20 07:34:12;;;;;;;110.10;3.40;;;19.80;36.40;;;;;;5034766;28;20185;-72
2023/05/20 07:36:38;;;;;;;112.67;4.03;;;19.60;36.30;;;;;;5034348;28;20770;-74
2023/05/20 07:39:03;;;;;;;110.17;3.00;;;20.00;36.30;;;;;;5033848;28;20168;-73
2023/05/20 07:41:29;;;;;;;110.87;3.07;;;20.00;35.30;;;;;;5033623;28;20248;-73
2023/05/20 07:43:55;;;;;;;110.50;3.07;;;19.80;36.10;;;;;;5032837;28;20179;-73
2023/05/20 07:46:20;;;;;;;110.17;3.03;;;19.80;36.40;;;;;;5033287;28;20715;-73
2023/05/20 07:48:46;;;;;;;109.57;3.20;;;19.60;35.70;;;;;;5033330;28;20175;-73
2023/05/20 07:51:12;;;;;;;109.37;3.10;;;19.70;36.90;;;;;;5033290;28;20182;-73
2023/05/20 07:53:38;;;;;;;110.57;3.70;;;20.10;36.30;;;;;;5033102;28;20180;-73
2023/05/20 07:56:04;;;;;;;109.77;3.20;;;20.00;35.80;;;;;;5033814;28;20205;-72
2023/05/20 07:58:30;;;;;;;111.40;3.80;;;20.20;35.50;;;;;;5034385;28;20447;-72
2023/05/20 08:00:56;;;;;;;110.27;3.17;;;20.20;35.30;;;;;;5033984;28;20168;-73
2023/05/20 08:03:22;;;;;;;110.60;3.30;;;20.30;35.10;;;;;;5033338;28;20431;-73
2023/05/20 08:05:48;;;;;;;110.50;3.30;;;20.70;34.90;;;;;;5034810;28;20440;-73
2023/05/20 08:08:14;;;;;;;110.43;3.37;;;20.90;34.40;;;;;;5033823;28;20631;-72
2023/05/20 08:10:40;;;;;;;110.57;3.27;;;20.90;33.90;;;;;;5015850;28;20425;-73
2023/05/20 08:13:06;;;;;;;109.50;3.37;;;20.70;33.90;;;;;;5016235;28;20427;-73
2023/05/20 08:15:32;;;;;;;109.40;3.20;;;20.80;34.00;;;;;;5033312;28;20209;-73
2023/05/20 08:17:57;;;;;;;110.17;3.50;;;20.80;33.50;;;;;;5033897;28;20198;-72
2023/05/20 08:20:25;;;;;;;110.07;3.47;;;21.10;33.70;;;;;;5033792;28;20173;-73
2023/05/20 08:22:50;;;;;;;109.67;3.23;;;19.40;33.20;;;;;;5033216;28;20219;-73
2023/05/20 08:25:16;;;;;;;109.87;3.40;;;21.40;34.20;;;;;;5033048;28;20440;-73
2023/05/20 08:27:42;;;;;;;109.97;3.43;;;21.60;32.50;;;;;;5033404;28;20219;-73
2023/05/20 08:30:08;;;;;;;110.00;3.57;;;21.60;33.20;;;;;;5033259;28;20178;-73
2023/05/20 08:32:35;;;;;;;111.33;4.00;;;21.70;33.10;;;;;;5032292;28;20182;-70
2023/05/20 08:35:01;;;;;;;109.97;3.50;;;21.80;32.10;;;;;;5032446;28;20871;-73
2023/05/20 08:37:28;;;;;;;109.63;3.37;;;21.80;32.90;;;;;;5032717;28;20479;-73
2023/05/20 08:39:54;;;;;;;110.40;3.43;;;21.90;32.80;;;;;;5032516;28;20522;-73
2023/05/20 08:42:23;;;;;;;109.30;3.37;;;21.80;32.30;;;;;;5032256;28;20879;-73
2023/05/20 08:44:51;;;;;;;109.70;3.53;;;21.80;31.70;;;;;;5031594;28;20449;-73
2023/05/20 08:47:18;;;;;;;109.60;3.47;;;21.90;31.40;;;;;;5031978;28;20417;-73
2023/05/20 08:49:44;;;;;;;107.37;2.80;;;22.10;31.60;;;;;;5032185;28;20470;-72
2023/05/20 08:52:12;;;;;;;107.93;3.60;;;21.70;31.90;;;;;;5031924;28;20417;-72
2023/05/20 08:54:47;;;;;;;108.00;3.63;;;21.70;32.80;;;;;;5031269;28;20510;-71
2023/05/20 08:57:13;;;;;;;108.60;3.70;;;21.30;33.40;;;;;;5030505;28;20511;-72
2023/05/20 08:59:43;;;;;;;107.77;3.10;;;21.70;32.80;;;;;;5030303;28;20407;-73
2023/05/20 09:02:10;;;;;;;108.50;3.30;;;22.30;31.00;;;;;;5031602;28;20415;-73
2023/05/20 09:04:36;;;;;;;109.27;3.43;;;22.70;30.00;;;;;;5029897;28;20456;-73
2023/05/20 09:07:02;;;;;;;108.80;3.60;;;22.90;29.50;;;;;;5031771;28;20414;-73
2023/05/20 09:09:28;;;;;;;108.67;3.40;;;22.90;29.40;;;;;;5031827;28;20498;-73
2023/05/20 09:11:54;;;;;;;108.47;3.23;;;22.80;29.60;;;;;;5031543;28;20411;-73
2023/05/20 09:14:20;;;;;;;110.03;3.73;;;22.60;29.90;;;;;;5030677;28;20958;-73
2023/05/20 09:16:47;;;;;;;111.33;3.93;;;22.40;31.00;;;;;;5031782;28;20240;-73
2023/05/20 09:19:12;;;;;;;110.17;3.73;;;22.50;29.40;;;;;;5031587;28;20168;-71
2023/05/20 09:21:40;;;;;;;112.90;3.20;;;22.40;30.00;;;;;;5031495;28;20411;-73
2023/05/20 09:24:06;;;;;;;108.20;3.27;;;22.50;29.50;;;;;;5031077;28;20203;-74
2023/05/20 09:26:32;;;;;;;108.97;3.70;;;22.80;29.20;;;;;;5034153;28;20449;-73
2023/05/20 09:28:58;;;;;;;108.97;3.63;;;23.20;28.80;;;;;;5035589;28;20411;-73
2023/05/20 09:31:29;;;;;;;108.70;3.57;;;22.70;28.30;;;;;;5035525;28;20202;-73
2023/05/20 09:33:55;;;;;;;108.20;3.23;;;22.80;29.80;;;;;;5034802;28;20469;-73
2023/05/20 09:36:22;;;;;;;108.33;3.50;;;22.90;28.70;;;;;;5035453;28;20904;-70
2023/05/20 09:38:52;;;;;;;108.30;3.07;;;23.20;28.30;;;;;;5033976;28;20200;-70
2023/05/20 09:41:20;;;;;;;109.33;3.43;;;23.30;28.00;;;;;;5035107;28;20807;-71
2023/05/20 09:43:47;;;;;;;109.07;3.40;;;23.40;28.40;;;;;;5035028;28;20410;-70
2023/05/20 09:46:13;;;;;;;109.27;3.60;;;23.30;28.30;;;;;;5035334;28;20431;-70
2023/05/20 09:48:39;;;;;;;108.67;3.27;;;23.20;27.40;;;;;;5035294;28;20403;-70
2023/05/20 09:51:06;;;;;;;109.40;3.50;;;23.20;27.80;;;;;;5035105;28;20455;-70
2023/05/20 09:53:32;;;;;;;110.60;3.97;;;23.30;27.50;;;;;;5034497;28;20854;-71
2023/05/20 09:55:58;;;;;;;108.60;3.27;;;23.40;27.30;;;;;;5034991;28;20524;-70
2023/05/20 09:58:24;;;;;;;109.00;3.77;;;23.80;27.80;;;;;;5033625;28;20210;-70
2023/05/20 10:00:52;;;;;;;109.27;3.60;;;23.90;27.80;;;;;;5034926;28;20420;-72
2023/05/20 10:03:22;;;;;;;108.20;3.27;;;24.10;28.40;;;;;;5034497;28;20420;-71
2023/05/20 10:06:01;;;;;;;108.70;3.73;;;24.10;27.00;;;;;;5034926;28;20442;-70
2023/05/20 10:08:45;;;;;;;108.87;3.50;;;23.00;27.60;;;;;;5034974;28;20427;-71
2023/05/20 10:11:17;;;;;;;107.90;3.03;;;23.40;28.50;;;;;;5035046;28;20404;-70
2023/05/20 10:14:09;;;;;;;107.40;3.10;;;23.70;27.10;;;;;;5032793;28;20970;-71
2023/05/20 10:16:46;;;;;;;108.00;3.40;;;24.10;28.00;;;;;;5030937;28;20445;-71
2023/05/20 10:19:29;;;;;;;107.37;3.13;;;24.30;25.90;;;;;;5034711;28;20416;-72
2023/05/20 10:22:03;;;;;;;107.00;3.27;;;23.40;27.20;;;;;;5034649;28;20398;-71
2023/05/20 10:24:31;;;;;;;106.97;3.00;;;23.50;27.60;;;;;;5033958;28;20879;-71
2023/05/20 10:26:58;;;;;;;107.07;3.23;;;24.20;27.90;;;;;;5034581;28;20488;-71
2023/05/20 10:29:24;;;;;;;107.37;3.10;;;24.90;25.80;;;;;;5034221;28;20406;-71
2023/05/20 10:31:51;;;;;;;107.67;3.60;;;24.70;25.60;;;;;;5016821;28;20415;-71
2023/05/20 10:34:18;;;;;;;108.30;3.60;;;24.40;27.10;;;;;;5033848;28;20206;-72
2023/05/20 10:36:54;;;;;;;108.10;3.10;;;24.30;26.40;;;;;;5034101;28;21028;-71
2023/05/20 10:39:32;;;;;;;107.57;3.33;;;24.60;26.90;;;;;;5034729;28;20406;-71
2023/05/20 10:42:06;;;;;;;107.73;3.00;;;25.20;27.50;;;;;;5036020;28;20469;-71
2023/05/20 10:44:41;;;;;;;108.37;3.63;;;24.90;25.60;;;;;;5033857;28;20434;-71
2023/05/20 10:47:07;;;;;;;108.80;3.50;;;25.20;26.80;;;;;;5035487;28;20410;-71
2023/05/20 10:49:34;;;;;;;107.57;3.00;;;25.40;25.50;;;;;;5035410;28;20434;-72
2023/05/20 10:52:00;;;;;;;107.60;3.10;;;25.40;26.00;;;;;;5036152;28;20192;-72
2023/05/20 10:54:27;;;;;;;107.50;2.90;;;25.40;25.60;;;;;;5034901;28;20431;-73
2023/05/20 10:56:53;;;;;;;108.10;3.37;;;25.90;27.00;;;;;;5035606;28;20165;-72
2023/05/20 10:59:23;;;;;;;108.57;3.60;;;26.00;25.90;;;;;;5035537;28;20413;-72
2023/05/20 11:01:49;;;;;;;107.50;3.10;;;26.20;25.20;;;;;;5034168;28;20906;-72
2023/05/20 11:04:16;;;;;;;107.97;3.20;;;26.10;25.70;;;;;;5034293;28;20411;-72
2023/05/20 11:06:55;;;;;;;108.60;3.47;;;26.00;23.90;;;;;;5018472;28;20436;-72
2023/05/20 11:09:22;;;;;;;107.90;3.27;;;26.20;25.20;;;;;;5035369;28;20407;-72
2023/05/20 11:11:49;;;;;;;107.60;3.10;;;26.70;24.10;;;;;;5034624;28;20407;-72
2023/05/20 11:14:16;;;;;;;107.83;3.03;;;26.80;23.80;;;;;;5033200;28;20415;-72
2023/05/20 11:16:42;;;;;;;107.60;3.17;;;26.50;25.60;;;;;;5032783;28;20455;-72
2023/05/20 11:19:13;;;;;;;108.23;3.90;;;26.40;24.00;;;;;;5035602;28;20459;-72
2023/05/20 11:21:43;;;;;;;104.30;3.23;;;26.00;24.00;;;;;;5039080;28;20157;-72
2023/05/20 11:24:08;;;;;;;104.67;3.00;;;26.20;23.90;;;;;;5033750;28;20430;-72
2023/05/20 11:26:35;;;;;;;105.40;2.83;;;26.30;24.70;;;;;;5034067;28;20415;-72
2023/05/20 11:29:01;;;;;;;104.87;3.47;;;26.70;23.70;;;;;;5035233;28;20173;-72
2023/05/20 11:31:26;;;;;;;105.20;3.63;;;27.60;23.00;;;;;;5035315;28;20920;-73
2023/05/20 11:33:52;;;;;;;104.60;3.17;;;28.30;21.00;;;;;;5034495;28;20715;-73
2023/05/20 11:36:18;;;;;;;104.37;3.10;;;28.60;21.30;;;;;;5034719;28;20188;-72
2023/05/20 11:38:45;;;;;;;104.80;3.13;;;28.30;20.50;;;;;;5034776;28;20236;-72
2023/05/20 11:41:12;;;;;;;108.70;3.30;;;27.60;22.20;;;;;;5034766;28;20635;-72
2023/05/20 11:43:38;;;;;;;109.27;3.20;;;27.00;22.20;;;;;;5036042;28;20464;-72
2023/05/20 11:46:04;;;;;;;108.13;3.10;;;24.60;22.20;;;;;;5033758;28;20431;-72
2023/05/20 11:48:30;;;;;;;108.27;3.10;;;26.20;23.20;;;;;;5031937;28;20188;-72
2023/05/20 11:50:56;;;;;;;108.93;3.40;;;26.30;24.50;;;;;;5033722;28;20411;-72
2023/05/20 11:53:23;;;;;;;108.83;3.30;;;26.60;24.90;;;;;;5032043;28;20180;-72
2023/05/20 11:55:53;;;;;;;108.30;3.13;;;27.40;21.90;;;;;;5038376;28;20438;-72
2023/05/20 11:58:21;;;;;;;108.27;3.00;;;28.70;22.10;;;;;;5035471;28;20451;-72
2023/05/20 12:00:47;;;;;;;109.57;3.10;;;29.30;20.40;;;;;;5033961;28;20463;-73
2023/05/20 12:03:13;;;;;;;107.10;3.40;;;29.30;19.00;;;;;;5033811;28;20462;-73
2023/05/20 12:05:39;;;;;;;108.70;3.67;;;29.00;21.50;;;;;;5034200;28;20191;-72
2023/05/20 12:08:05;;;;;;;107.87;2.93;;;28.60;20.40;;;;;;5033895;28;20442;-72
2023/05/20 12:10:31;;;;;;;107.23;3.00;;;27.90;21.70;;;;;;5034324;28;20835;-72
2023/05/20 12:12:57;;;;;;;108.33;3.30;;;28.20;21.40;;;;;;5034164;28;20433;-73
2023/05/20 12:15:23;;;;;;;108.63;3.17;;;28.70;21.40;;;;;;5033815;28;20451;-73
2023/05/20 12:17:51;;;;;;;108.20;2.90;;;30.20;20.00;;;;;;5033731;28;20455;-72
2023/05/20 12:20:20;;;;;;;106.37;3.17;;;30.90;19.00;;;;;;5034055;28;20173;-73
2023/05/20 12:22:46;;;;;;;108.00;3.10;;;30.90;19.10;;;;;;5034608;28;20441;-72
2023/05/20 12:25:14;;;;;;;107.00;2.97;;;31.20;17.60;;;;;;5033641;28;20431;-72